Aérodrome :
LOGIN :

S'inscrire | Disclaimer

   EN    FR    IT 

 










Légende :    VFR   VFR Marginal   IFR   IFR Intensif   IFR Très Intensif
Visi : 
Plafond : 
>= 8 km
>= 3000ft
5 à 8 km
1000 à 3000 ft
1500m à 5 km
500 à 1000 ft
800 à 1500m
200 à 500 ft
< 800m
< 200 ft
Symboles :   Orages  Brouillard  Fortes neiges  Fortes précipitations  Vent > 20 kt
SIGMETs :   Divers  Orages  Givrage  Turbulence  Onde Orograph.  Cendres Volcan.






- Altitude de l'aérodrome : 1411 ft
- Code IATA : SZG


LOWS - Salzburg

DERNIER METAR :
  • 121020Z 16006KT 9999 -RADZ FEW005 SCT034 BKN050 05/03 Q1009 NOSIG

METARs EXPIRÉS :
  • 120950Z 17006KT 9999 -RA FEW004 SCT032 BKN045 04/03 Q1010 NOSIG
  • 120920Z 15005KT 9999 -RA FEW004 SCT030 BKN045 04/03 Q1010 NOSIG
  • 120850Z 16003KT 9999 -RADZ FEW004 SCT028 BKN050 04/03 Q1010 NOSIG
  • 120820Z 16005KT 9999 -RA FEW004 SCT025 BKN045 04/03 Q1010 NOSIG
  • 120750Z 16004KT 8000 -RA FEW004 SCT025 BKN042 03/03 Q1011 NOSIG

TAF TAF LOWS
Valide du 12 à 06h jusqu'au 13 à 06h UTC


120515Z 1206/1306 16004KT 9999 -RA SCT020 BKN030 TX05/1212Z TN01/1306Z
TEMPO 1206/1209 4000 RA SCT008 BKN012
TEMPO 1215/1224 32005KT 4000 RA SCT008 BKN012
PROB30
TEMPO 1222/1224 2500 RASN BKN009
TEMPO 1300/1306 31006KT 2500 RASN BKN009
PROB30
TEMPO 1302/1306 1400 SN VV005



MET'MAP, la Météo Aéronautique d'un coup d'oeil ! - Copyright ORBIFLY Décembre 2007 - Disclaimer

ORBIFLY MET'MAP TEAM :

Programmation & Développement : Alexandra Zaïnal
Conception & Développement : Baudouin d'Aumeries
Co-Programmation & Développement : Marc-Olivier Méhu
Soutien technique & logistique : Manuel Goepfert

Contact : metmap@orbifly.com




SOURCES & CREDITS :

   NOAA